Terminal Aerodrome Forecast
Issued by NWS Melbourne, FL

Home | Current Version | Previous Version | Text Only | Print | Product List | Glossary On
Versions: 1 2 3 4 5 6 7 8 9 10 11 12 13 14 15 16 17
034
FTUS42 KMLB 222340
TAFVRB
TAF
KVRB 222340Z 2300/2324 08007KT P6SM VCSH SCT025 SCT050
     FM230800 VRB03KT P6SM VCSH FEW020 SCT035 SCT250
     FM231500 11008KT P6SM VCTS SCT030CB BKN100 BKN250=

USA.gov is the U.S. government's official web portal to all federal, state and local government web resources and services.